Time;durP1;ratioP1;P1;durP2;ratioP2;P2;SDS_P1;SDS_P2;PMS_P1;PMS_P2;Temp;Humidity;BMP_temperature;BMP_pressure;BME280_temperature;BME280_humidity;BME280_pressure;Samples;Min_cycle;Max_cycle;Signal;HPM_P1;HPM_P2
2022/05/24 00:44:33;;;;;;;3.92;2.38;;;24.30;1.00;;;;;;4997410;28;20093;-54
2022/05/24 00:47:07;;;;;;;3.45;2.33;;;24.30;1.00;;;;;;4978703;28;20053;-48
2022/05/24 00:49:43;;;;;;;4.05;2.50;;;24.30;1.00;;;;;;4978381;28;20018;-48
2022/05/24 00:52:20;;;;;;;6.30;3.08;;;24.30;1.00;;;;;;4994940;28;20041;-47
2022/05/24 00:54:46;;;;;;;5.40;2.40;;;24.20;1.00;;;;;;4994017;28;20069;-50
2022/05/24 00:57:29;;;;;;;3.90;2.40;;;24.20;1.00;;;;;;4994012;28;20030;-48
2022/05/24 01:00:17;;;;;;;4.10;2.60;;;24.20;1.00;;;;;;4993755;28;20042;-48
2022/05/24 01:02:44;;;;;;;4.38;2.72;;;24.20;1.00;;;;;;4995127;28;20030;-48
2022/05/24 01:05:22;;;;;;;8.02;3.08;;;24.20;1.00;;;;;;4990404;28;20022;-48
2022/05/24 01:07:48;;;;;;;3.30;2.25;;;24.10;1.00;;;;;;4995008;28;20472;-48
2022/05/24 01:10:26;;;;;;;4.72;2.55;;;24.00;1.00;;;;;;4985713;28;20555;-52
2022/05/24 01:12:59;;;;;;;4.63;2.70;;;23.80;1.00;;;;;;4993059;28;20034;-47
2022/05/24 01:15:25;;;;;;;5.20;2.60;;;23.80;1.00;;;;;;4987403;28;20041;-47
2022/05/24 01:17:53;;;;;;;5.80;2.53;;;23.70;1.00;;;;;;4993243;28;20052;-52
2022/05/24 01:20:19;;;;;;;7.50;2.67;;;23.70;1.00;;;;;;4993413;28;20045;-48
2022/05/24 01:22:57;;;;;;;3.53;2.67;;;23.70;1.00;;;;;;4994428;28;20022;-48
2022/05/24 01:25:37;;;;;;;3.65;2.60;;;23.90;1.00;;;;;;4993619;28;20031;-48
2022/05/24 01:28:11;;;;;;;2.65;2.45;;;23.90;1.00;;;;;;4994551;28;20064;-51
2022/05/24 01:30:37;;;;;;;6.25;2.75;;;23.80;1.00;;;;;;4993543;28;20072;-48
2022/05/24 01:38:32;;;;;;;5.63;2.55;;;23.90;1.00;;;;;;4993961;28;20052;-50
2022/05/24 01:40:59;;;;;;;3.30;2.40;;;23.80;1.00;;;;;;4991742;28;20022;-48
2022/05/24 01:43:26;;;;;;;4.38;2.53;;;23.80;1.00;;;;;;4992887;28;20400;-48
2022/05/24 01:46:05;;;;;;;6.55;2.80;;;23.90;1.00;;;;;;4992875;28;20047;-51
2022/05/24 01:48:37;;;;;;;4.15;2.80;;;23.70;1.00;;;;;;4991520;28;20045;-54
2022/05/24 01:51:05;;;;;;;4.70;2.67;;;23.70;1.00;;;;;;4992680;28;20034;-51
2022/05/24 01:53:37;;;;;;;5.45;2.60;;;23.70;1.00;;;;;;4993820;28;20061;-52
2022/05/24 01:56:06;;;;;;;4.65;2.58;;;23.70;1.00;;;;;;4992530;28;20100;-48
2022/05/24 01:58:35;;;;;;;4.38;2.70;;;23.80;1.00;;;;;;4993759;28;20089;-50
2022/05/24 02:01:19;;;;;;;5.07;2.80;;;23.70;1.00;;;;;;4989360;28;20046;-51
2022/05/24 02:03:45;;;;;;;5.95;3.17;;;23.70;1.00;;;;;;4993423;28;20030;-53
2022/05/24 02:06:26;;;;;;;3.90;2.90;;;23.60;1.00;;;;;;4976274;28;20491;-52
2022/05/24 02:08:53;;;;;;;4.32;3.25;;;23.60;1.00;;;;;;4989897;28;20023;-50
2022/05/24 02:11:23;;;;;;;5.53;3.15;;;23.70;1.00;;;;;;4989380;28;20026;-50
2022/05/24 02:13:55;;;;;;;5.68;3.28;;;23.60;1.00;;;;;;4992889;28;20023;-54
2022/05/24 02:16:23;;;;;;;5.45;3.53;;;23.40;1.00;;;;;;4989375;28;20023;-55
2022/05/24 02:18:52;;;;;;;4.93;2.97;;;23.50;1.00;;;;;;4992410;28;20070;-50
2022/05/24 02:21:18;;;;;;;4.07;2.78;;;23.50;1.00;;;;;;4978068;28;20027;-49
2022/05/24 02:23:46;;;;;;;6.50;3.65;;;23.50;1.00;;;;;;4975146;28;20121;-49
2022/05/24 02:26:13;;;;;;;5.80;3.45;;;23.70;1.00;;;;;;4992469;28;20023;-51
2022/05/24 02:28:39;;;;;;;6.03;2.58;;;23.60;1.00;;;;;;4990311;28;20039;-54
2022/05/24 02:31:17;;;;;;;6.28;2.90;;;23.70;1.00;;;;;;4985868;28;20030;-57
2022/05/24 02:33:43;;;;;;;4.13;3.05;;;23.80;1.00;;;;;;4977058;28;20475;-53
2022/05/24 02:36:09;;;;;;;4.90;2.90;;;23.70;1.00;;;;;;4987452;28;20029;-54
2022/05/24 02:38:35;;;;;;;3.33;3.03;;;23.80;1.00;;;;;;4992413;28;20396;-54
2022/05/24 02:43:45;;;;;;;;;;;23.70;1.00;;;;;;4991999;28;20440;-55
2022/05/24 02:46:11;;;;;;;4.95;2.88;;;23.70;1.00;;;;;;5002229;28;19952;-54
2022/05/24 02:48:37;;;;;;;4.75;2.50;;;23.60;1.00;;;;;;5013423;28;20120;-54
2022/05/24 02:51:09;;;;;;;5.90;3.08;;;23.60;1.00;;;;;;5001584;28;20026;-52
2022/05/24 02:53:35;;;;;;;3.95;2.58;;;23.60;1.00;;;;;;4993404;28;20469;-53
2022/05/24 02:56:02;;;;;;;4.80;3.17;;;23.50;1.00;;;;;;5003257;28;20058;-53
2022/05/24 02:58:28;;;;;;;6.18;2.88;;;23.60;1.00;;;;;;5012091;28;20479;-53
2022/05/24 03:00:54;;;;;;;4.80;2.88;;;23.60;1.00;;;;;;5009816;28;20069;-52
2022/05/24 03:03:19;;;;;;;7.88;2.92;;;23.60;1.00;;;;;;5010242;28;20026;-55
2022/05/24 03:05:45;;;;;;;4.97;3.22;;;23.60;1.00;;;;;;5002136;28;20029;-54
2022/05/24 03:10:55;;;;;;;5.50;3.17;;;23.60;1.00;;;;;;4994185;28;20138;-54
2022/05/24 03:16:13;;;;;;;4.30;2.78;;;23.50;1.00;;;;;;5016092;28;20534;-52
2022/05/24 03:18:39;;;;;;;;;;;23.50;1.00;;;;;;4997693;28;20066;-46
2022/05/24 03:21:06;;;;;;;3.00;2.47;;;23.50;1.00;;;;;;5014571;28;19906;-47
2022/05/24 03:23:32;;;;;;;3.90;2.45;;;23.30;1.00;;;;;;5016059;28;20029;-49
2022/05/24 03:25:57;;;;;;;4.75;2.53;;;23.40;1.00;;;;;;5016390;28;20022;-52
2022/05/24 03:28:23;;;;;;;3.97;2.75;;;23.40;1.00;;;;;;5015199;28;20040;-52
2022/05/24 03:30:49;;;;;;;5.65;2.58;;;23.40;1.00;;;;;;5013794;28;20034;-53
2022/05/24 03:33:16;;;;;;;4.53;2.83;;;23.40;1.00;;;;;;5013978;28;20034;-54
2022/05/24 03:35:41;;;;;;;4.60;3.30;;;23.40;1.00;;;;;;4996582;28;20030;-53
2022/05/24 03:38:07;;;;;;;4.22;3.20;;;23.30;1.00;;;;;;5042801;28;20030;-52
2022/05/24 03:40:34;;;;;;;3.35;2.97;;;23.50;1.00;;;;;;5001212;28;20097;-54
2022/05/24 03:43:01;;;;;;;4.10;2.63;;;23.40;1.00;;;;;;5010710;28;20026;-51
2022/05/24 03:45:28;;;;;;;9.20;3.75;;;23.40;1.00;;;;;;5015843;28;20108;-51
2022/05/24 03:47:54;;;;;;;7.88;3.17;;;23.40;1.00;;;;;;5014989;28;20030;-52
2022/05/24 03:50:22;;;;;;;5.38;2.92;;;23.40;1.00;;;;;;5015613;28;20391;-51
2022/05/24 03:52:49;;;;;;;6.65;3.45;;;23.40;1.00;;;;;;5012077;28;20022;-52
2022/05/24 03:55:15;;;;;;;5.38;3.25;;;23.40;1.00;;;;;;4995773;28;20472;-47
2022/05/24 04:00:25;;;;;;;;;;;23.40;1.00;;;;;;5014930;28;20088;-50
2022/05/24 04:02:51;;;;;;;7.05;3.13;;;23.40;1.00;;;;;;5014037;28;20275;-48
2022/05/24 04:05:17;;;;;;;6.90;3.33;;;23.30;1.00;;;;;;5014921;28;20033;-50
2022/05/24 04:07:42;;;;;;;6.72;2.65;;;23.30;1.00;;;;;;5010110;28;20413;-52
2022/05/24 04:10:15;;;;;;;5.95;3.40;;;23.40;1.00;;;;;;4995607;28;20045;-54
2022/05/24 04:12:41;;;;;;;6.20;3.28;;;23.40;1.00;;;;;;5006065;28;20037;-52
2022/05/24 04:15:07;;;;;;;9.27;3.42;;;23.40;1.00;;;;;;5015390;28;20038;-53
2022/05/24 04:17:33;;;;;;;7.30;3.05;;;23.40;1.00;;;;;;5012297;28;20026;-52
2022/05/24 04:19:58;;;;;;;6.38;3.05;;;23.40;1.00;;;;;;4995987;28;20119;-50
2022/05/24 04:22:24;;;;;;;4.35;3.40;;;23.30;1.00;;;;;;5002773;28;20061;-48
2022/05/24 04:25:02;;;;;;;7.07;3.13;;;23.40;1.00;;;;;;5015019;28;20116;-52
2022/05/24 04:27:28;;;;;;;12.63;3.42;;;23.40;1.00;;;;;;5011923;28;20543;-53
2022/05/24 04:39:59;;;;;;;5.68;3.20;;;23.40;1.00;;;;;;4995824;28;20124;-50
2022/05/24 04:42:25;;;;;;;5.75;3.30;;;23.40;1.00;;;;;;4995674;28;20054;-52
2022/05/24 04:45:00;;;;;;;3.58;3.28;;;23.50;1.00;;;;;;5011014;28;20069;-52
2022/05/24 04:47:28;;;;;;;6.28;3.15;;;23.50;1.00;;;;;;5014838;28;20025;-53
2022/05/24 04:49:57;;;;;;;4.97;2.97;;;23.50;1.00;;;;;;5001092;28;20057;-52
2022/05/24 04:52:25;;;;;;;5.60;2.80;;;23.50;1.00;;;;;;4995344;28;20132;-51
2022/05/24 04:54:51;;;;;;;5.53;3.10;;;23.50;1.00;;;;;;5004413;28;20483;-50
2022/05/24 04:57:18;;;;;;;6.97;3.00;;;23.40;1.00;;;;;;5012456;28;20034;-52
2022/05/24 04:59:47;;;;;;;4.55;3.17;;;23.40;1.00;;;;;;4997551;28;20050;-53
2022/05/24 05:12:19;;;;;;;7.07;3.50;;;23.50;1.00;;;;;;5001317;28;20136;-53
2022/05/24 05:14:45;;;;;;;7.80;3.38;;;23.60;1.00;;;;;;5013752;28;20516;-52
2022/05/24 05:17:12;;;;;;;4.60;3.03;;;23.60;1.00;;;;;;5014326;28;20037;-50
2022/05/24 05:19:38;;;;;;;4.65;3.00;;;23.50;1.00;;;;;;5012960;28;20030;-47
2022/05/24 05:22:04;;;;;;;6.03;3.35;;;23.60;1.00;;;;;;5014260;28;20021;-51
2022/05/24 05:24:30;;;;;;;6.70;3.50;;;23.60;1.00;;;;;;4997395;28;20034;-54
2022/05/24 05:26:55;;;;;;;6.10;3.10;;;23.50;1.00;;;;;;4994558;28;20070;-50
2022/05/24 05:31:16;;;;;;;6.90;3.13;;;23.60;1.00;;;;;;5011462;28;20399;-50
2022/05/24 05:32:07;;;;;;;5.75;3.47;;;23.60;1.00;;;;;;5013730;28;20168;-47
2022/05/24 05:34:33;;;;;;;8.90;3.60;;;23.60;1.00;;;;;;5002664;28;20061;-50
2022/05/24 05:36:58;;;;;;;3.92;2.88;;;23.60;1.00;;;;;;4994440;28;20128;-49
2022/05/24 05:39:24;;;;;;;8.07;2.92;;;23.60;1.00;;;;;;4999907;28;20049;-46
2022/05/24 05:41:50;;;;;;;4.22;2.83;;;23.60;1.00;;;;;;4994243;28;20065;-49
2022/05/24 05:44:15;;;;;;;7.97;3.28;;;23.50;1.00;;;;;;4999555;28;20043;-49
2022/05/24 05:46:41;;;;;;;4.47;3.50;;;23.50;1.00;;;;;;4993177;28;20061;-50
2022/05/24 05:49:07;;;;;;;9.85;3.70;;;23.60;1.00;;;;;;4993512;28;20061;-53
2022/05/24 05:51:32;;;;;;;5.97;3.33;;;23.70;1.00;;;;;;4996636;28;20109;-51
2022/05/24 05:53:58;;;;;;;5.28;3.67;;;23.60;1.00;;;;;;5010641;28;20072;-51
2022/05/24 05:56:24;;;;;;;7.20;3.63;;;23.70;1.00;;;;;;5014268;28;20025;-54
2022/05/24 05:58:49;;;;;;;10.40;5.70;;;23.80;1.00;;;;;;5001729;28;20053;-48
2022/05/24 06:01:20;;;;;;;10.27;4.90;;;23.80;1.00;;;;;;4993552;28;20395;-50
2022/05/24 06:03:46;;;;;;;8.40;5.10;;;23.90;1.00;;;;;;5004062;28;20053;-49
2022/05/24 06:06:17;;;;;;;11.48;5.60;;;23.90;1.00;;;;;;5012188;28;20053;-53
2022/05/24 06:08:42;;;;;;;10.18;5.47;;;23.90;1.00;;;;;;5013104;28;20037;-49
2022/05/24 06:11:08;;;;;;;9.10;6.30;;;24.00;1.00;;;;;;5013607;28;20029;-51
2022/05/24 06:13:34;;;;;;;11.30;7.30;;;24.10;1.00;;;;;;5004557;28;20037;-48
2022/05/24 06:16:01;;;;;;;13.05;6.55;;;24.10;1.00;;;;;;5009853;28;20025;-46
2022/05/24 06:18:26;;;;;;;10.32;7.30;;;24.10;1.00;;;;;;5011734;28;20034;-50
2022/05/24 06:20:52;;;;;;;14.20;8.00;;;24.10;1.00;;;;;;5012754;28;20025;-47
2022/05/24 06:23:18;;;;;;;10.27;7.43;;;24.10;1.00;;;;;;4999225;28;20026;-50
2022/05/24 06:25:43;;;;;;;11.95;8.43;;;24.10;1.00;;;;;;5013198;28;20030;-52
2022/05/24 06:28:14;;;;;;;13.95;8.82;;;24.20;1.00;;;;;;5013184;28;20133;-54
2022/05/24 06:30:40;;;;;;;15.50;9.38;;;24.20;1.00;;;;;;5008389;28;20025;-49
2022/05/24 06:33:06;;;;;;;10.52;8.35;;;24.40;1.00;;;;;;4993976;28;20041;-54
2022/05/24 06:35:32;;;;;;;14.38;8.77;;;24.30;1.00;;;;;;4999416;28;20021;-52
2022/05/24 06:37:57;;;;;;;11.43;9.57;;;24.40;1.00;;;;;;5006340;28;20026;-53
2022/05/24 06:40:23;;;;;;;15.15;8.13;;;24.40;1.00;;;;;;5012347;28;20038;-51
2022/05/24 06:42:49;;;;;;;15.45;9.20;;;24.60;1.00;;;;;;5010510;28;20095;-58
2022/05/24 06:48:38;;;;;;;14.20;11.30;;;24.50;1.00;;;;;;4997232;28;20109;-48
2022/05/24 06:51:15;;;;;;;15.35;11.38;;;24.70;1.00;;;;;;4997444;28;20035;-52
2022/05/24 06:53:43;;;;;;;14.70;11.82;;;24.70;1.00;;;;;;5005801;28;20061;-51
2022/05/24 06:56:10;;;;;;;15.20;10.15;;;24.70;1.00;;;;;;5014838;28;20038;-52
2022/05/24 06:58:36;;;;;;;13.25;10.27;;;24.80;1.00;;;;;;5004503;28;20074;-54
2022/05/24 07:03:49;;;;;;;15.20;9.02;;;24.90;1.00;;;;;;5015950;28;20076;-54
2022/05/24 07:06:15;;;;;;;13.57;9.52;;;24.90;1.00;;;;;;5018855;28;20473;-49
2022/05/24 07:08:42;;;;;;;10.80;9.15;;;25.00;1.00;;;;;;5019787;28;20022;-53
2022/05/24 07:11:08;;;;;;;9.75;8.75;;;25.00;1.00;;;;;;5015175;28;20030;-52
2022/05/24 07:13:34;;;;;;;12.68;9.10;;;25.00;1.00;;;;;;5009287;28;20536;-50
2022/05/24 07:15:59;;;;;;;19.23;9.90;;;25.00;1.00;;;;;;5011621;28;20033;-49
2022/05/24 07:18:26;;;;;;;13.45;10.32;;;25.00;1.00;;;;;;4997734;28;20469;-48
2022/05/24 07:20:52;;;;;;;17.42;10.35;;;24.90;1.00;;;;;;5016544;28;20030;-49
2022/05/24 07:23:20;;;;;;;11.95;10.32;;;25.00;1.00;;;;;;5018039;28;20057;-50
2022/05/24 07:25:47;;;;;;;12.02;8.95;;;25.00;1.00;;;;;;5014850;28;20038;-48
2022/05/24 07:28:18;;;;;;;9.73;7.53;;;25.00;1.00;;;;;;4997116;28;20079;-49
2022/05/24 07:30:45;;;;;;;9.88;7.85;;;25.00;1.00;;;;;;5010608;28;20026;-50
2022/05/24 07:33:12;;;;;;;10.13;8.68;;;25.00;1.00;;;;;;5012675;28;20029;-53
2022/05/24 07:35:39;;;;;;;17.00;9.43;;;25.00;1.00;;;;;;4996621;28;20027;-51
2022/05/24 07:38:09;;;;;;;17.52;10.95;;;25.10;1.00;;;;;;4997098;28;20040;-49
2022/05/24 07:46:09;;;;;;;10.55;8.00;;;25.20;1.00;;;;;;5013196;28;20085;-51
2022/05/24 07:48:35;;;;;;;12.55;8.73;;;25.20;1.00;;;;;;5012368;28;20026;-51
2022/05/24 07:51:02;;;;;;;12.35;7.72;;;25.20;1.00;;;;;;5002919;28;20030;-50
2022/05/24 07:53:28;;;;;;;9.27;7.43;;;25.20;1.00;;;;;;4999619;28;20052;-55
2022/05/24 07:55:54;;;;;;;11.45;6.55;;;25.30;1.00;;;;;;4998125;28;20114;-48
2022/05/24 07:58:20;;;;;;;11.00;7.15;;;25.20;1.00;;;;;;5003829;28;20523;-48
2022/05/24 08:00:47;;;;;;;8.48;5.60;;;25.30;1.00;;;;;;5004033;28;20160;-49
2022/05/24 08:03:13;;;;;;;9.70;6.63;;;25.30;1.00;;;;;;5005204;28;20022;-51
2022/05/24 08:05:39;;;;;;;9.88;6.28;;;25.30;1.00;;;;;;5005481;28;20041;-48
2022/05/24 08:08:06;;;;;;;8.05;5.90;;;25.40;1.00;;;;;;5004766;28;20019;-50
2022/05/24 08:10:34;;;;;;;10.40;6.20;;;25.40;1.00;;;;;;5006270;28;20036;-47
2022/05/24 08:13:04;;;;;;;11.45;6.47;;;25.40;1.00;;;;;;4999810;28;20089;-52
2022/05/24 08:15:30;;;;;;;8.57;7.75;;;25.40;1.00;;;;;;5018961;28;20369;-48
2022/05/24 08:17:56;;;;;;;9.98;7.53;;;25.50;1.00;;;;;;5007774;28;20041;-48
2022/05/24 08:20:22;;;;;;;9.82;7.80;;;25.50;1.00;;;;;;5001805;28;20042;-50
2022/05/24 08:22:47;;;;;;;12.85;7.82;;;25.50;1.00;;;;;;5003262;28;20037;-49
2022/05/24 08:25:14;;;;;;;11.60;9.30;;;25.60;1.00;;;;;;5001594;28;20464;-49
2022/05/24 08:27:39;;;;;;;11.13;7.45;;;25.60;1.00;;;;;;5006596;28;20018;-47
2022/05/24 08:30:07;;;;;;;7.40;6.70;;;25.60;1.00;;;;;;5001220;28;20084;-48
2022/05/24 08:32:33;;;;;;;9.50;6.45;;;25.60;1.00;;;;;;5000147;28;20077;-49
2022/05/24 08:34:59;;;;;;;11.35;8.38;;;25.60;1.00;;;;;;5001115;28;20453;-49
2022/05/24 08:37:25;;;;;;;12.80;7.90;;;25.70;1.00;;;;;;5006404;28;20113;-49
2022/05/24 08:39:51;;;;;;;9.05;7.75;;;25.70;1.00;;;;;;5002275;28;20037;-51
2022/05/24 08:42:27;;;;;;;11.80;6.88;;;25.70;1.00;;;;;;5005234;28;20517;-50
2022/05/24 08:50:32;;;;;;;10.27;6.55;;;25.90;1.00;;;;;;5003011;28;20057;-53
2022/05/24 08:53:07;;;;;;;6.15;5.13;;;26.00;1.00;;;;;;5004638;28;20026;-49
2022/05/24 08:55:36;;;;;;;7.13;5.85;;;26.00;1.00;;;;;;5001740;28;20105;-48
2022/05/24 08:58:44;;;;;;;8.60;4.68;;;26.10;1.00;;;;;;5000245;28;20034;-47
2022/05/24 09:01:32;;;;;;;9.32;6.20;;;26.00;1.00;;;;;;4994485;28;20515;-47
2022/05/24 09:04:02;;;;;;;7.60;6.20;;;26.10;1.00;;;;;;5002942;28;20058;-46
2022/05/24 09:06:53;;;;;;;10.65;6.85;;;26.10;1.00;;;;;;5001055;28;20783;-49
2022/05/24 09:09:37;;;;;;;12.18;6.25;;;26.20;1.00;;;;;;5001835;28;20034;-52
2022/05/24 09:12:07;;;;;;;8.85;7.80;;;26.30;1.00;;;;;;5004937;28;20028;-49
2022/05/24 09:14:45;;;;;;;13.00;7.78;;;26.30;1.00;;;;;;5002341;28;20155;-49
2022/05/24 09:17:23;;;;;;;9.40;7.05;;;26.30;1.00;;;;;;5002757;28;20038;-50
2022/05/24 09:19:49;;;;;;;10.70;7.18;;;26.30;1.00;;;;;;5003248;28;20038;-52
2022/05/24 09:22:15;;;;;;;12.95;9.23;;;26.40;1.00;;;;;;5000955;28;20037;-50
2022/05/24 09:25:00;;;;;;;11.00;9.75;;;26.40;1.00;;;;;;5004628;28;20026;-49
2022/05/24 09:27:28;;;;;;;14.13;8.52;;;26.30;1.00;;;;;;5005188;28;20043;-47
2022/05/24 09:30:20;;;;;;;8.57;6.72;;;26.30;1.00;;;;;;4996429;28;20396;-54
2022/05/24 09:32:47;;;;;;;11.82;9.73;;;26.50;1.00;;;;;;4992795;28;20027;-47
2022/05/24 09:35:15;;;;;;;13.60;9.23;;;26.60;1.00;;;;;;5027595;28;20488;-51
2022/05/24 09:37:42;;;;;;;10.55;9.50;;;26.70;1.00;;;;;;5001727;28;20057;-54
2022/05/24 09:40:17;;;;;;;12.13;10.65;;;26.80;1.00;;;;;;5004076;28;20043;-50
2022/05/24 09:42:43;;;;;;;13.13;10.10;;;26.90;1.00;;;;;;4993529;28;20033;-50
2022/05/24 09:45:21;;;;;;;13.93;10.73;;;26.90;1.00;;;;;;5002642;28;20046;-49
2022/05/24 09:47:58;;;;;;;9.77;8.77;;;27.00;1.00;;;;;;5003333;28;20129;-47
2022/05/24 09:50:34;;;;;;;10.95;7.70;;;27.20;1.00;;;;;;4999358;28;20444;-49
2022/05/24 09:53:02;;;;;;;10.32;7.60;;;27.30;1.00;;;;;;5008923;28;20069;-50
2022/05/24 09:55:52;;;;;;;14.68;9.57;;;27.40;1.00;;;;;;5005809;28;20087;-48
2022/05/24 09:58:20;;;;;;;12.30;8.98;;;27.40;1.00;;;;;;5010683;28;20408;-53
2022/05/24 10:00:51;;;;;;;10.20;8.88;;;27.60;1.00;;;;;;5001331;28;20125;-51
2022/05/24 10:03:21;;;;;;;10.35;8.48;;;27.70;1.00;;;;;;5002967;28;20033;-51
2022/05/24 10:06:02;;;;;;;11.35;10.00;;;27.80;1.00;;;;;;5007015;28;20127;-50
2022/05/24 10:08:28;;;;;;;12.35;9.73;;;27.80;1.00;;;;;;5011575;28;20041;-49
2022/05/24 10:10:57;;;;;;;13.77;10.48;;;27.80;1.00;;;;;;5007041;28;20033;-50
2022/05/24 10:13:45;;;;;;;10.65;7.93;;;27.90;1.00;;;;;;5009560;28;20080;-50
2022/05/24 10:16:22;;;;;;;12.95;8.48;;;27.90;1.00;;;;;;5007826;28;20038;-51
2022/05/24 10:18:59;;;;;;;8.75;7.93;;;28.10;1.00;;;;;;5011124;28;20041;-53
2022/05/24 10:21:38;;;;;;;9.98;8.55;;;28.30;1.00;;;;;;5002244;28;20433;-49
2022/05/24 10:24:33;;;;;;;13.35;10.40;;;28.30;1.00;;;;;;5000431;28;20037;-48
2022/05/24 10:27:14;;;;;;;10.43;8.40;;;28.20;1.00;;;;;;5010046;28;20128;-52
2022/05/24 10:29:54;;;;;;;12.80;9.05;;;28.10;1.00;;;;;;5011168;28;20066;-52
2022/05/24 10:38:19;;;;;;;13.27;9.77;;;27.90;1.00;;;;;;4993944;28;20428;-49
2022/05/24 10:41:37;;;;;;;11.73;8.68;;;27.80;1.00;;;;;;5000107;28;20572;-54
2022/05/24 10:44:13;;;;;;;10.98;8.85;;;27.70;1.00;;;;;;4981361;28;20117;-51
2022/05/24 10:47:00;;;;;;;12.00;8.18;;;27.80;1.00;;;;;;4997252;28;20050;-54
2022/05/24 10:49:51;;;;;;;11.38;10.02;;;27.80;1.00;;;;;;4992989;28;20085;-49
2022/05/24 10:52:47;;;;;;;13.07;8.40;;;27.60;1.00;;;;;;5000030;28;20048;-52
2022/05/24 10:55:23;;;;;;;14.38;9.57;;;27.60;1.00;;;;;;4999750;28;20040;-48
2022/05/24 10:58:02;;;;;;;11.88;9.32;;;27.70;1.00;;;;;;5003325;28;20018;-51
2022/05/24 11:00:59;;;;;;;13.30;10.65;;;28.00;1.00;;;;;;4996652;28;20605;-49
2022/05/24 11:03:32;;;;;;;13.50;9.15;;;28.20;1.00;;;;;;5002201;28;20042;-51
2022/05/24 11:06:26;;;;;;;11.82;10.63;;;28.40;1.00;;;;;;5011359;28;20391;-53
2022/05/24 11:09:02;;;;;;;12.65;9.68;;;28.50;1.00;;;;;;4998715;28;20400;-51
2022/05/24 11:11:35;;;;;;;12.48;7.97;;;28.70;1.00;;;;;;4999632;28;20069;-52
2022/05/24 11:14:22;;;;;;;13.10;8.25;;;28.70;1.00;;;;;;5003689;28;20042;-54
2022/05/24 11:16:51;;;;;;;11.77;9.25;;;28.70;1.00;;;;;;5004535;28;20030;-50
2022/05/24 11:19:22;;;;;;;10.52;8.68;;;28.60;1.00;;;;;;5006462;28;20081;-50
2022/05/24 11:22:16;;;;;;;14.63;9.50;;;28.40;1.00;;;;;;5004992;28;20033;-53
2022/05/24 11:24:48;;;;;;;12.20;7.82;;;28.50;1.00;;;;;;4999867;28;20035;-50
2022/05/24 11:27:15;;;;;;;11.27;8.02;;;28.50;1.00;;;;;;5001882;28;20045;-51
2022/05/24 11:29:51;;;;;;;10.77;8.95;;;28.30;1.00;;;;;;5002803;28;20332;-53
2022/05/24 11:32:32;;;;;;;15.52;10.63;;;28.60;1.00;;;;;;5006589;28;20120;-53
2022/05/24 11:35:26;;;;;;;11.32;10.23;;;28.90;1.00;;;;;;5007914;28;20041;-50
2022/05/24 11:37:57;;;;;;;15.73;9.25;;;28.60;1.00;;;;;;5002456;28;20038;-50
2022/05/24 11:44:37;;;;;;;9.90;7.85;;;28.70;1.00;;;;;;5007204;28;20092;-49
2022/05/24 11:47:04;;;;;;;11.82;6.88;;;28.70;1.00;;;;;;5005011;28;20458;-48
2022/05/24 11:49:29;;;;;;;9.48;7.40;;;28.90;1.00;;;;;;5008995;28;20053;-47
2022/05/24 11:51:59;;;;;;;11.20;8.25;;;29.50;1.00;;;;;;5010770;28;20530;-51
2022/05/24 11:54:56;;;;;;;10.95;7.75;;;29.40;1.00;;;;;;5010767;28;20038;-49
2022/05/24 11:57:26;;;;;;;9.65;6.93;;;29.40;1.00;;;;;;4997166;28;20038;-50
2022/05/24 11:59:53;;;;;;;12.32;7.68;;;29.20;1.00;;;;;;5012147;28;20044;-49
2022/05/24 12:02:26;;;;;;;12.63;8.80;;;29.30;1.00;;;;;;5013642;28;20026;-46
2022/05/24 12:08:35;;;;;;;11.15;7.80;;;30.40;1.00;;;;;;5009283;28;20056;-51
2022/05/24 12:11:17;;;;;;;13.82;7.35;;;31.10;1.00;;;;;;5013777;28;20373;-49
2022/05/24 12:13:46;;;;;;;9.27;6.25;;;30.80;1.00;;;;;;5013903;28;20022;-47
2022/05/24 12:16:46;;;;;;;9.68;6.68;;;30.20;1.00;;;;;;5014404;28;20022;-48
2022/05/24 12:19:49;;;;;;;7.55;6.13;;;29.90;1.00;;;;;;4991686;28;20073;-48
2022/05/24 12:22:17;;;;;;;8.80;7.00;;;30.00;1.00;;;;;;4964833;28;20031;-47
2022/05/24 12:24:49;;;;;;;9.18;6.30;;;29.80;1.00;;;;;;4998959;28;20104;-49
2022/05/24 12:27:20;;;;;;;11.30;6.07;;;29.50;1.00;;;;;;5010426;28;20085;-49
2022/05/24 12:30:16;;;;;;;9.52;6.38;;;29.70;1.00;;;;;;5022893;28;20473;-49
2022/05/24 12:32:41;;;;;;;8.32;5.80;;;29.80;1.00;;;;;;5013408;28;20384;-49
2022/05/24 12:35:11;;;;;;;7.35;6.57;;;29.90;1.00;;;;;;5002307;28;20040;-52
2022/05/24 12:38:00;;;;;;;14.95;6.90;;;30.10;1.00;;;;;;5011084;28;20049;-50
2022/05/24 12:40:30;;;;;;;11.23;6.35;;;30.10;1.00;;;;;;5009116;28;20048;-51
2022/05/24 12:43:01;;;;;;;12.15;6.25;;;29.90;1.00;;;;;;5009847;28;20477;-51
2022/05/24 12:45:35;;;;;;;9.60;5.90;;;29.90;1.00;;;;;;5011212;28;20048;-49
2022/05/24 12:48:01;;;;;;;8.80;5.95;;;30.70;1.00;;;;;;5012068;28;20031;-52
2022/05/24 12:50:41;;;;;;;12.27;6.28;;;30.20;1.00;;;;;;5008894;28;20586;-51
2022/05/24 12:53:10;;;;;;;10.45;6.10;;;30.00;1.00;;;;;;5010545;28;20041;-51
2022/05/24 12:55:57;;;;;;;9.93;5.93;;;30.50;1.00;;;;;;5008924;28;20069;-50
2022/05/24 12:58:28;;;;;;;11.00;5.90;;;33.40;1.00;;;;;;5013317;28;20439;-51
2022/05/24 13:01:31;;;;;;;11.07;5.82;;;35.40;1.00;;;;;;5009198;28;20165;-48
2022/05/24 13:04:19;;;;;;;7.00;5.60;;;36.30;1.00;;;;;;4971044;28;20041;-47
2022/05/24 13:06:46;;;;;;;11.40;6.85;;;33.30;1.00;;;;;;5011945;28;20566;-50
2022/05/24 13:09:32;;;;;;;11.48;5.50;;;32.30;1.00;;;;;;5011833;28;20023;-49
2022/05/24 13:12:07;;;;;;;5.80;4.75;;;32.30;1.00;;;;;;5027393;28;20030;-50
2022/05/24 13:15:06;;;;;;;7.35;5.65;;;31.60;1.00;;;;;;5005677;28;20108;-52
2022/05/24 13:17:45;;;;;;;7.85;5.18;;;31.60;1.00;;;;;;5000496;28;20018;-51
2022/05/24 13:20:24;;;;;;;8.43;7.15;;;32.00;1.00;;;;;;5011407;28;20046;-58
2022/05/24 13:22:51;;;;;;;7.78;5.32;;;31.50;1.00;;;;;;5010464;28;20369;-49
2022/05/24 13:25:29;;;;;;;9.52;5.20;;;31.20;1.00;;;;;;5011211;28;20430;-50
2022/05/24 13:28:01;;;;;;;8.60;5.25;;;30.70;1.00;;;;;;5009659;28;20053;-52
2022/05/24 13:33:35;;;;;;;13.07;5.63;;;30.50;1.00;;;;;;5007319;28;20545;-50
2022/05/24 13:36:14;;;;;;;7.45;5.45;;;30.40;1.00;;;;;;5011970;28;20034;-53
2022/05/24 13:38:42;;;;;;;8.38;5.07;;;31.00;1.00;;;;;;5008163;28;20599;-47
2022/05/24 13:41:10;;;;;;;9.40;5.72;;;31.00;1.00;;;;;;5010748;28;20715;-50
2022/05/24 13:43:44;;;;;;;7.50;4.72;;;30.60;1.00;;;;;;5003093;28;20030;-46
2022/05/24 13:46:19;;;;;;;9.60;4.70;;;30.40;1.00;;;;;;5008220;28;20412;-49
2022/05/24 13:48:54;;;;;;;7.18;5.13;;;30.30;1.00;;;;;;5012529;28;20095;-50
2022/05/24 13:51:32;;;;;;;13.60;5.50;;;30.60;1.00;;;;;;5009928;28;20036;-50
2022/05/24 13:53:59;;;;;;;10.20;5.75;;;30.40;1.00;;;;;;5010171;28;20498;-50
2022/05/24 13:56:33;;;;;;;7.65;5.88;;;30.30;1.00;;;;;;5011648;28;20034;-52
2022/05/24 13:59:19;;;;;;;8.27;5.80;;;30.20;1.00;;;;;;5012723;28;20109;-53
2022/05/24 14:01:48;;;;;;;9.65;5.13;;;30.10;1.00;;;;;;5011938;28;20022;-47
2022/05/24 14:04:22;;;;;;;9.27;5.07;;;30.40;1.00;;;;;;5006929;28;20500;-50
2022/05/24 14:07:05;;;;;;;9.27;5.70;;;30.80;1.00;;;;;;5006021;28;20521;-54
2022/05/24 14:09:31;;;;;;;8.48;5.88;;;31.20;1.00;;;;;;5003539;28;20033;-47
2022/05/24 14:12:00;;;;;;;11.32;6.25;;;31.50;1.00;;;;;;5010006;28;20388;-50
2022/05/24 14:14:28;;;;;;;10.63;4.40;;;32.00;1.00;;;;;;5009338;28;20113;-48
2022/05/24 14:16:55;;;;;;;8.75;4.82;;;32.00;1.00;;;;;;5034063;28;20022;-52
2022/05/24 14:19:22;;;;;;;12.15;5.30;;;32.40;1.00;;;;;;5005500;28;20131;-51
2022/05/24 14:21:50;;;;;;;7.50;4.65;;;32.30;1.00;;;;;;5006144;28;20026;-51
2022/05/24 14:24:18;;;;;;;8.68;4.63;;;32.60;1.00;;;;;;4998659;28;20380;-48
2022/05/24 14:26:51;;;;;;;6.03;4.78;;;32.60;1.00;;;;;;5006828;28;20503;-53
2022/05/24 14:29:17;;;;;;;7.50;4.72;;;32.90;1.00;;;;;;5009106;28;20022;-52
2022/05/24 14:31:43;;;;;;;6.03;4.50;;;33.20;1.00;;;;;;5006356;28;20049;-52
2022/05/24 14:34:11;;;;;;;6.90;4.72;;;33.50;1.00;;;;;;5003732;28;20026;-50
2022/05/24 14:36:38;;;;;;;8.75;4.55;;;33.30;1.00;;;;;;5006182;28;20022;-46
2022/05/24 14:39:05;;;;;;;9.82;4.47;;;33.40;1.00;;;;;;5005084;28;20455;-46
2022/05/24 14:41:31;;;;;;;4.50;4.07;;;33.60;1.00;;;;;;5007340;28;20061;-48
2022/05/24 14:44:04;;;;;;;7.53;4.50;;;33.90;1.00;;;;;;5003060;28;20488;-49
2022/05/24 14:46:31;;;;;;;5.60;4.47;;;34.00;1.00;;;;;;5005288;28;20416;-54
2022/05/24 14:48:58;;;;;;;8.15;4.47;;;33.50;1.00;;;;;;5005771;28;20485;-50
2022/05/24 14:51:29;;;;;;;8.50;5.13;;;33.60;1.00;;;;;;5005092;28;20032;-47
2022/05/24 14:53:57;;;;;;;5.05;4.30;;;33.30;1.00;;;;;;5004099;28;20403;-50
2022/05/24 14:56:23;;;;;;;8.85;4.95;;;32.90;1.00;;;;;;5003356;28;20596;-54
2022/05/24 14:58:49;;;;;;;8.85;5.25;;;32.50;1.00;;;;;;5005442;28;20022;-48
2022/05/24 15:01:14;;;;;;;10.50;5.13;;;33.00;1.00;;;;;;5011199;28;20042;-51
2022/05/24 15:03:40;;;;;;;7.10;4.70;;;33.00;1.00;;;;;;5011310;28;20030;-51
2022/05/24 15:06:06;;;;;;;9.68;5.43;;;33.00;1.00;;;;;;4994666;28;20039;-49
2022/05/24 15:16:49;;;;;;;6.43;4.97;;;32.40;1.00;;;;;;5014616;28;20092;-49